KANJ

Sault Ste Marie Municipal / Sanderson Field Airport

Sault Ste Marie, Michigan, USA
METAR KANJ 191955Z AUTO 08004KT 10SM CLR 24/11 A3003 RMK AO2 SLP167 T02390111
Observed Flight Rules
Jun-19 @ 19:55 UTC (16 minutes ago) Visual Flight Rules
Wind Visibility Clouds
80° at 4 knots 10 miles
  • Clear skies
Temperatures Readings
Current 24°C / 75°F
Dewpoint 11°C / 52°F
Humidity 44%
Altimeter 30.03" Hg
Pressure 1016.7 hPa
Elevation 218
METAR KANJ 191955Z AUTO 08004KT 10SM CLR 24/11 A3003 RMK AO2 SLP167 T02390111
Observed Flight Rules
Jun-19 @ 19:55 UTC
(16 minutes ago)
VFR
Wind Visibility
80° at 4 knots 10 miles
Clouds
  • Clear skies
Temperature Dewpoint
24°C / 75°F 11°C / 52°F
Humidity Altimeter Pressure
44% 30.03" Hg 1016.7 hPa